Time;durP1;ratioP1;P1;durP2;ratioP2;P2;SDS_P1;SDS_P2;PMS_P1;PMS_P2;Temp;Humidity;BMP_temperature;BMP_pressure;BME280_temperature;BME280_humidity;BME280_pressure;Samples;Min_cycle;Max_cycle;Signal;HPM_P1;HPM_P2
2023/06/17 00:00:13;;;;;;;35.00;21.40;;;;;;;15.28;100.00;101061.53;4990210;28;20061;-75
2023/06/17 00:02:39;;;;;;;27.88;20.67;;;;;;;15.28;100.00;101062.38;4973653;28;20026;-74
2023/06/17 00:05:05;;;;;;;34.53;18.27;;;;;;;15.28;100.00;101064.22;4989537;28;20600;-73
2023/06/17 00:07:30;;;;;;;30.75;19.55;;;;;;;15.25;100.00;101059.22;4974031;28;20361;-75
2023/06/17 00:09:56;;;;;;;31.67;19.33;;;;;;;15.18;100.00;101062.66;4991054;28;20409;-74
2023/06/17 00:12:24;;;;;;;27.00;19.57;;;;;;;15.19;100.00;101064.31;5006387;28;20618;-75
2023/06/17 00:14:50;;;;;;;29.55;19.45;;;;;;;15.18;100.00;101059.94;4984700;28;20033;-74
2023/06/17 00:17:17;;;;;;;30.90;18.77;;;;;;;15.15;100.00;101046.06;4989668;28;20057;-74
2023/06/17 00:19:42;;;;;;;31.83;19.95;;;;;;;15.08;100.00;101039.75;4957381;28;20030;-74
2023/06/17 00:22:08;;;;;;;29.73;19.70;;;;;;;15.07;100.00;101048.81;4990281;28;20107;-74
2023/06/17 00:24:37;;;;;;;35.38;21.30;;;;;;;15.06;100.00;101049.84;4988627;28;20126;-74
2023/06/17 00:27:03;;;;;;;26.27;19.27;;;;;;;15.03;100.00;101045.69;4973913;28;21012;-74
2023/06/17 00:29:28;;;;;;;33.25;19.70;;;;;;;15.03;100.00;101040.31;4973784;28;20495;-74
2023/06/17 00:31:54;;;;;;;33.23;21.30;;;;;;;14.96;100.00;101037.50;4973448;28;20533;-73
2023/06/17 00:34:19;;;;;;;34.90;22.03;;;;;;;14.92;100.00;101032.69;4973123;28;20038;-74
2023/06/17 00:36:44;;;;;;;36.07;23.17;;;;;;;14.87;100.00;101022.47;4973671;28;20277;-74
2023/06/17 00:39:10;;;;;;;29.50;20.63;;;;;;;14.86;100.00;101019.97;4990191;28;20031;-73
2023/06/17 00:41:35;;;;;;;35.55;21.90;;;;;;;14.76;100.00;101026.44;4973232;28;20113;-73
2023/06/17 00:44:01;;;;;;;29.17;20.27;;;;;;;14.73;100.00;101016.06;4973105;28;20042;-74
2023/06/17 00:46:40;;;;;;;34.90;22.02;;;;;;;14.68;100.00;101018.47;4989622;28;20463;-74
2023/06/17 00:49:09;;;;;;;37.83;24.17;;;;;;;14.57;100.00;101018.91;4989509;28;20038;-73
2023/06/17 00:51:36;;;;;;;38.72;25.67;;;;;;;14.56;100.00;101018.09;4990869;28;20010;-74
2023/06/17 00:54:02;;;;;;;49.83;28.23;;;;;;;14.53;100.00;101015.72;4972933;28;20092;-74
2023/06/17 00:56:29;;;;;;;40.25;25.95;;;;;;;14.47;100.00;101020.97;4973201;28;20026;-74
2023/06/17 00:58:56;;;;;;;49.03;29.23;;;;;;;14.43;100.00;101019.69;5005451;28;20045;-74
2023/06/17 01:01:24;;;;;;;44.13;27.75;;;;;;;14.43;100.00;101025.06;4973035;28;20420;-73
2023/06/17 01:03:51;;;;;;;43.78;28.83;;;;;;;14.44;100.00;101032.09;5005445;28;20026;-73
2023/06/17 01:06:33;;;;;;;43.05;27.00;;;;;;;14.39;100.00;101029.13;4988965;28;20476;-74
2023/06/17 01:09:09;;;;;;;44.42;27.90;;;;;;;14.34;100.00;101025.09;4973193;28;20058;-74
2023/06/17 01:11:38;;;;;;;44.03;30.63;;;;;;;14.27;100.00;101020.66;4986012;28;20708;-74
2023/06/17 01:14:05;;;;;;;43.95;28.38;;;;;;;14.20;100.00;101023.22;4972072;28;20045;-73
2023/06/17 01:16:34;;;;;;;47.47;27.25;;;;;;;14.19;100.00;101016.19;4973072;28;20057;-74
2023/06/17 01:18:59;;;;;;;43.92;27.20;;;;;;;14.15;100.00;101010.31;4990238;28;20022;-74
2023/06/17 01:21:30;;;;;;;45.63;27.90;;;;;;;14.04;100.00;101004.53;4972807;28;20031;-74
2023/06/17 01:23:59;;;;;;;42.25;26.75;;;;;;;14.02;100.00;101001.19;4972704;28;20120;-74
2023/06/17 01:26:24;;;;;;;36.78;24.50;;;;;;;13.95;100.00;101009.13;4972751;28;20072;-73
2023/06/17 01:28:50;;;;;;;47.87;29.27;;;;;;;13.93;100.00;101009.31;4988904;28;20034;-74
2023/06/17 01:31:19;;;;;;;39.85;26.45;;;;;;;13.97;100.00;101006.28;4988801;28;20093;-73
2023/06/17 01:33:50;;;;;;;46.15;27.35;;;;;;;13.97;100.00;101015.16;4986586;28;20033;-73
2023/06/17 01:36:28;;;;;;;39.13;27.85;;;;;;;13.98;100.00;101015.97;4989804;28;20202;-73
2023/06/17 01:39:02;;;;;;;58.40;29.40;;;;;;;13.99;100.00;101015.81;4988597;28;20428;-74
2023/06/17 01:41:42;;;;;;;41.65;27.80;;;;;;;13.94;100.00;101015.50;4970498;28;20118;-73
2023/06/17 01:44:10;;;;;;;44.75;28.27;;;;;;;13.89;100.00;101007.16;4988030;28;20026;-73
2023/06/17 01:46:36;;;;;;;52.60;31.27;;;;;;;13.84;100.00;101005.00;4972388;28;20079;-73
2023/06/17 01:49:02;;;;;;;38.10;27.52;;;;;;;13.79;100.00;100995.81;4972210;28;20077;-73
2023/06/17 01:51:28;;;;;;;44.72;29.02;;;;;;;13.73;100.00;100998.19;4972286;28;20045;-73
2023/06/17 01:53:53;;;;;;;59.03;34.50;;;;;;;13.77;100.00;101001.38;4988835;28;20034;-73
2023/06/17 01:56:20;;;;;;;52.08;33.17;;;;;;;13.85;100.00;101014.72;4971950;28;20029;-73
2023/06/17 01:58:46;;;;;;;59.50;36.42;;;;;;;13.86;100.00;101005.69;4988153;28;20033;-73
2023/06/17 02:01:12;;;;;;;66.35;37.95;;;;;;;13.88;100.00;101011.72;4972015;28;20114;-73
2023/06/17 02:03:38;;;;;;;68.80;40.30;;;;;;;13.94;100.00;101015.50;4988540;28;20109;-73
2023/06/17 02:06:04;;;;;;;72.43;40.92;;;;;;;13.81;100.00;101008.03;4971667;28;20073;-73
2023/06/17 02:08:32;;;;;;;70.60;38.75;;;;;;;13.78;100.00;101016.44;4972567;28;20026;-74
2023/06/17 02:10:57;;;;;;;;;;;;;;;13.83;100.00;101014.06;4972366;28;20486;-73
2023/06/17 02:13:23;;;;;;;64.25;37.88;;;;;;;13.75;100.00;101013.28;5004136;28;20004;-73
2023/06/17 02:15:48;;;;;;;73.47;39.83;;;;;;;13.79;100.00;101015.44;4971645;28;20018;-73
2023/06/17 02:18:14;;;;;;;56.33;34.13;;;;;;;13.83;100.00;101023.97;4971865;28;20026;-73
2023/06/17 02:20:39;;;;;;;50.73;34.07;;;;;;;13.82;100.00;101023.13;4971725;28;20105;-73
2023/06/17 02:23:05;;;;;;;58.93;36.37;;;;;;;13.78;100.00;101013.75;4971043;28;20121;-73
2023/06/17 02:25:30;;;;;;;58.58;35.95;;;;;;;13.79;100.00;101012.78;4970806;28;20092;-73
2023/06/17 02:27:58;;;;;;;77.50;39.60;;;;;;;13.67;100.00;101009.66;4988076;28;20109;-73
2023/06/17 02:30:23;;;;;;;64.23;36.13;;;;;;;13.73;100.00;101016.16;4971343;28;20453;-73
2023/06/17 02:32:49;;;;;;;70.10;38.13;;;;;;;13.68;100.00;101010.47;4971529;28;20029;-73
2023/06/17 02:35:14;;;;;;;126.77;41.13;;;;;;;13.58;100.00;101012.53;4987574;28;20022;-73
2023/06/17 02:37:40;;;;;;;56.60;37.13;;;;;;;13.59;100.00;101016.91;4971684;28;20058;-73
2023/06/17 02:40:08;;;;;;;73.38;39.17;;;;;;;13.61;100.00;101009.50;4971318;28;20695;-74
2023/06/17 02:42:35;;;;;;;54.67;35.78;;;;;;;13.64;100.00;101006.47;4987161;28;20073;-73
2023/06/17 02:45:01;;;;;;;63.78;38.15;;;;;;;13.61;100.00;101006.84;4971132;28;20684;-73
2023/06/17 02:47:27;;;;;;;57.78;37.17;;;;;;;13.60;100.00;101005.16;4987582;28;20030;-73
2023/06/17 02:49:52;;;;;;;85.43;38.80;;;;;;;13.56;100.00;101002.00;4971334;28;20026;-73
2023/06/17 02:52:18;;;;;;;84.80;39.23;;;;;;;13.50;100.00;101008.88;4971240;28;20028;-73
2023/06/17 02:54:43;;;;;;;56.05;36.33;;;;;;;13.46;100.00;101002.22;4971217;28;20023;-73
2023/06/17 02:57:15;;;;;;;53.22;35.63;;;;;;;13.53;100.00;101021.09;4980255;28;20137;-73
2023/06/17 02:59:40;;;;;;;;;;;;;;;13.56;100.00;101020.78;4971911;28;20023;-73
2023/06/17 03:02:06;;;;;;;;;;;;;;;13.55;100.00;101012.88;4971537;28;19918;-73
2023/06/17 03:04:37;;;;;;;76.87;36.20;;;;;;;13.51;100.00;101015.09;4987299;28;19971;-73
2023/06/17 03:07:05;;;;;;;67.95;36.88;;;;;;;13.47;100.00;101017.28;4991294;28;20098;-73
2023/06/17 03:09:31;;;;;;;63.72;35.92;;;;;;;13.39;100.00;101017.34;4975298;28;20025;-73
2023/06/17 03:11:58;;;;;;;51.72;34.17;;;;;;;13.46;100.00;101014.75;4974884;28;20026;-73
2023/06/17 03:14:24;;;;;;;58.95;36.10;;;;;;;13.46;100.00;101012.94;4990850;28;20116;-73
2023/06/17 03:16:50;;;;;;;;;;;;;;;13.38;100.00;101010.28;4975389;28;20044;-73
2023/06/17 03:19:18;;;;;;;48.45;31.42;;;;;;;13.48;100.00;101010.91;4991366;28;19909;-73
2023/06/17 03:21:45;;;;;;;73.72;37.85;;;;;;;13.50;100.00;101008.06;4990900;28;20034;-73
2023/06/17 03:24:11;;;;;;;69.65;36.28;;;;;;;13.49;100.00;101007.22;4969982;28;20038;-72
2023/06/17 03:26:36;;;;;;;50.38;34.10;;;;;;;13.56;100.00;101017.25;4992475;28;20061;-73
2023/06/17 03:29:03;;;;;;;53.33;33.50;;;;;;;13.58;100.00;101002.66;4973948;28;20039;-73
2023/06/17 03:31:29;;;;;;;55.75;33.28;;;;;;;13.65;100.00;101009.00;4991011;28;20018;-73
2023/06/17 03:33:55;;;;;;;67.45;37.20;;;;;;;13.69;100.00;101009.47;4974556;28;20085;-73
2023/06/17 03:36:29;;;;;;;70.23;37.43;;;;;;;13.65;100.00;101003.63;4990688;28;20101;-73
2023/06/17 03:38:56;;;;;;;55.67;36.70;;;;;;;13.70;100.00;101000.41;4974463;28;20288;-73
2023/06/17 03:41:23;;;;;;;57.67;36.53;;;;;;;13.76;100.00;101005.06;4990518;28;20274;-73
2023/06/17 03:43:48;;;;;;;;;;;;;;;13.76;100.00;100996.16;4990471;28;20038;-73
2023/06/17 03:46:13;;;;;;;;;;;;;;;13.81;100.00;101002.66;5006925;28;19910;-73
2023/06/17 03:48:39;;;;;;;61.57;36.13;;;;;;;13.84;100.00;100988.91;4990289;28;19940;-73
2023/06/17 03:51:06;;;;;;;63.30;36.47;;;;;;;13.80;100.00;100992.13;4990037;28;20488;-73
2023/06/17 03:53:32;;;;;;;55.60;36.88;;;;;;;13.75;100.00;100994.50;4989787;28;20039;-73
2023/06/17 03:55:58;;;;;;;67.97;37.45;;;;;;;13.77;100.00;100998.69;4983637;28;20029;-73
2023/06/17 03:58:24;;;;;;;56.77;37.57;;;;;;;13.82;100.00;100992.78;4973850;28;20034;-73
2023/06/17 04:00:51;;;;;;;74.15;41.65;;;;;;;13.85;100.00;101001.31;4989968;28;20030;-73
2023/06/17 04:03:24;;;;;;;63.03;37.72;;;;;;;13.87;100.00;101003.81;4973776;28;20030;-73
2023/06/17 04:05:53;;;;;;;111.00;46.97;;;;;;;13.78;100.00;100989.63;4987444;28;20376;-73
2023/06/17 04:08:20;;;;;;;66.47;39.42;;;;;;;13.90;100.00;100998.91;4974197;28;20053;-73
2023/06/17 04:10:47;;;;;;;159.10;47.63;;;;;;;13.82;100.00;100998.97;4984220;28;20027;-73
2023/06/17 04:13:14;;;;;;;111.82;44.22;;;;;;;13.89;100.00;101005.31;4989938;28;20384;-73
2023/06/17 04:15:39;;;;;;;66.10;40.20;;;;;;;14.04;100.00;101005.38;4991109;28;20685;-73
2023/06/17 04:18:05;;;;;;;67.78;39.38;;;;;;;14.13;100.00;101009.66;4982331;28;20028;-73
2023/06/17 04:20:34;;;;;;;75.93;40.90;;;;;;;14.05;100.00;101000.84;4973291;28;20065;-73
2023/06/17 04:22:59;;;;;;;74.93;40.53;;;;;;;14.07;100.00;101004.16;4972846;28;20038;-73
2023/06/17 04:25:25;;;;;;;67.60;37.50;;;;;;;14.18;100.00;101000.25;4988796;28;20434;-73
2023/06/17 04:27:56;;;;;;;64.00;39.25;;;;;;;14.32;100.00;101000.28;4988415;28;20354;-73
2023/06/17 04:30:24;;;;;;;99.72;40.67;;;;;;;14.33;100.00;101004.66;4973714;28;20286;-73
2023/06/17 04:32:50;;;;;;;140.52;47.50;;;;;;;14.26;100.00;100992.97;4973346;28;20105;-73
2023/06/17 04:35:17;;;;;;;57.58;39.22;;;;;;;14.30;100.00;100994.25;4989197;28;20129;-73
2023/06/17 04:37:53;;;;;;;83.30;44.63;;;;;;;14.37;100.00;100994.38;4973293;28;20050;-73
2023/06/17 04:40:20;;;;;;;116.72;45.65;;;;;;;14.36;100.00;100990.84;4985777;28;20205;-73
2023/06/17 04:42:47;;;;;;;66.95;39.65;;;;;;;14.53;100.00;101001.44;4972853;28;20026;-73
2023/06/17 04:45:12;;;;;;;;;;;;;;;14.57;100.00;101000.09;4990938;28;20050;-73
2023/06/17 04:47:38;;;;;;;82.70;42.80;;;;;;;14.64;100.00;100992.97;5005458;28;20318;-73
2023/06/17 04:50:04;;;;;;;59.60;39.20;;;;;;;14.75;100.00;100995.22;4980186;28;20040;-73
2023/06/17 04:52:31;;;;;;;;;;;;;;;14.85;100.00;100994.13;4972783;28;20026;-73
2023/06/17 04:54:57;;;;;;;73.43;42.88;;;;;;;14.78;100.00;100991.34;4988826;28;19914;-73
2023/06/17 04:57:23;;;;;;;60.33;38.73;;;;;;;14.93;100.00;100994.03;5004753;28;20522;-73
2023/06/17 04:59:50;;;;;;;55.20;36.72;;;;;;;15.01;100.00;100982.34;4983797;28;20033;-73
2023/06/17 05:02:16;;;;;;;47.80;34.20;;;;;;;15.05;100.00;100976.41;4988391;28;20023;-74
2023/06/17 05:04:43;;;;;;;;;;;;;;;15.19;100.00;100974.72;4972833;28;20125;-73
2023/06/17 05:07:08;;;;;;;53.42;36.03;;;;;;;15.24;100.00;100968.78;4988583;28;20434;-73
2023/06/17 05:09:35;;;;;;;47.95;33.45;;;;;;;15.36;100.00;100975.38;4988704;28;20053;-73
2023/06/17 05:12:00;;;;;;;44.63;32.13;;;;;;;15.43;100.00;100968.22;4988620;28;20476;-73
2023/06/17 05:14:26;;;;;;;43.42;31.08;;;;;;;15.52;100.00;100959.00;4990735;28;20112;-73
2023/06/17 05:16:51;;;;;;;52.90;34.03;;;;;;;15.47;100.00;100949.81;4983135;28;20290;-73
2023/06/17 05:19:17;;;;;;;47.08;35.50;;;;;;;15.61;100.00;100948.94;4972436;28;20030;-73
2023/06/17 05:21:43;;;;;;;52.53;33.15;;;;;;;15.57;100.00;100943.13;4956136;28;20026;-73
2023/06/17 05:24:10;;;;;;;50.55;32.47;;;;;;;15.71;100.00;100949.50;4972199;28;20487;-74
2023/06/17 05:26:35;;;;;;;37.57;28.23;;;;;;;15.79;100.00;100945.84;4972127;28;20135;-74
2023/06/17 05:29:01;;;;;;;;;;;;;;;15.73;100.00;100939.38;4987721;28;20549;-73
2023/06/17 05:31:27;;;;;;;41.25;29.00;;;;;;;15.88;100.00;100946.56;4971485;28;19913;-74
2023/06/17 05:33:52;;;;;;;42.90;30.90;;;;;;;16.00;100.00;100953.09;4987644;28;20120;-74
2023/06/17 05:36:18;;;;;;;40.17;30.50;;;;;;;15.97;100.00;100935.47;4972092;28;20107;-73
2023/06/17 05:38:43;;;;;;;45.93;31.03;;;;;;;16.35;100.00;100951.31;4988550;28;20531;-73
2023/06/17 05:41:08;;;;;;;35.80;28.13;;;;;;;16.51;100.00;100939.41;4987048;28;20035;-74
2023/06/17 05:43:43;;;;;;;;;;;;;;;16.64;100.00;100944.88;5001430;23;20374;-87
2023/06/17 05:46:11;;;;;;;34.28;24.60;;;;;;;16.50;100.00;100932.34;4963908;28;19918;-88
2023/06/17 05:48:39;;;;;;;37.00;27.52;;;;;;;16.38;100.00;100940.13;4956268;28;20023;-86
2023/06/17 05:51:05;;;;;;;40.63;28.67;;;;;;;16.16;100.00;100914.28;4969082;28;20445;-86
2023/06/17 05:53:30;;;;;;;37.00;26.40;;;;;;;16.12;100.00;100934.56;4952591;28;20785;-86
2023/06/17 05:55:56;;;;;;;33.10;25.77;;;;;;;16.16;100.00;100938.53;4968696;28;20071;-84
2023/06/17 05:58:22;;;;;;;33.92;26.15;;;;;;;16.21;100.00;100936.06;4955970;28;20023;-84
2023/06/17 06:00:55;;;;;;;36.47;27.85;;;;;;;16.42;100.00;100935.19;4956638;28;20042;-85
2023/06/17 06:03:21;;;;;;;33.07;24.57;;;;;;;16.67;100.00;100939.09;4955659;28;20100;-86
2023/06/17 06:05:47;;;;;;;33.13;23.95;;;;;;;16.60;100.00;100940.06;4971792;28;20555;-84
2023/06/17 06:08:13;;;;;;;31.73;25.83;;;;;;;16.75;100.00;100943.50;4965739;28;20078;-85
2023/06/17 06:10:38;;;;;;;28.33;22.47;;;;;;;16.87;100.00;100928.44;4969180;28;20043;-84
2023/06/17 06:13:04;;;;;;;28.80;23.37;;;;;;;17.06;100.00;100926.88;4957843;28;20037;-84
2023/06/17 06:15:30;;;;;;;;;;;;;;;17.51;100.00;100919.16;4962995;28;20022;-84
2023/06/17 06:17:55;;;;;;;29.35;22.13;;;;;;;17.70;100.00;100866.25;4973640;28;20264;-82
2023/06/17 06:20:20;;;;;;;25.47;20.70;;;;;;;17.30;100.00;100852.69;4973538;28;20027;-83
2023/06/17 06:22:46;;;;;;;26.17;20.70;;;;;;;17.32;100.00;100870.53;4957910;28;20035;-87
2023/06/17 06:25:11;;;;;;;29.13;24.37;;;;;;;17.24;100.00;100880.47;4971636;28;20113;-86
2023/06/17 06:27:37;;;;;;;26.47;20.27;;;;;;;17.57;100.00;100892.38;4955770;28;20031;-87
2023/06/17 06:30:04;;;;;;;26.90;22.55;;;;;;;17.14;100.00;100881.88;4955813;28;20035;-86
2023/06/17 06:32:32;;;;;;;28.77;22.27;;;;;;;17.59;100.00;100912.75;4964167;28;20038;-86
2023/06/17 06:34:58;;;;;;;35.55;25.58;;;;;;;18.28;100.00;100914.25;4963548;28;20015;-86
2023/06/17 06:37:24;;;;;;;32.03;22.83;;;;;;;20.17;100.00;100914.06;4955580;28;20112;-87
2023/06/17 06:39:49;;;;;;;35.30;25.48;;;;;;;20.53;100.00;100644.78;4970949;28;20030;-86
2023/06/17 06:42:15;;;;;;;33.53;23.70;;;;;;;20.51;100.00;100553.88;4954142;28;20332;-87
2023/06/17 06:44:52;;;;;;;31.85;23.50;;;;;;;21.07;100.00;100481.97;4952265;28;20633;-87
2023/06/17 06:47:20;;;;;;;28.23;20.27;;;;;;;21.81;100.00;100397.91;4963628;28;20035;-87
2023/06/17 06:49:45;;;;;;;27.67;19.75;;;;;;;22.31;100.00;100367.25;4955332;28;20033;-87
2023/06/17 06:52:11;;;;;;;25.55;20.15;;;;;;;22.99;100.00;100287.28;4971297;28;20041;-87
2023/06/17 06:54:36;;;;;;;27.40;22.30;;;;;;;23.55;100.00;100026.28;4954882;28;20023;-86
2023/06/17 06:57:02;;;;;;;22.48;19.00;;;;;;;24.31;100.00;100058.44;4959950;28;20290;-87
2023/06/17 06:59:27;;;;;;;25.58;20.50;;;;;;;23.56;100.00;99796.38;4955223;28;20049;-87
2023/06/17 07:01:53;;;;;;;25.23;19.48;;;;;;;23.21;100.00;99743.50;4955166;28;20046;-87
2023/06/17 07:04:20;;;;;;;20.27;15.73;;;;;;;23.37;100.00;99990.25;4970727;28;20101;-87
2023/06/17 07:06:47;;;;;;;20.92;16.88;;;;;;;24.05;100.00;99901.34;4953091;28;20039;-87
2023/06/17 07:09:17;;;;;;;21.25;18.77;;;;;;;23.75;100.00;99886.59;4955525;28;20015;-87
2023/06/17 07:11:42;;;;;;;22.08;19.70;;;;;;;22.68;100.00;99906.03;4954857;28;20093;-86
2023/06/17 07:14:08;;;;;;;24.63;19.52;;;;;;;21.97;100.00;99903.56;4967735;28;20030;-87
2023/06/17 07:16:33;;;;;;;25.25;18.30;;;;;;;22.25;100.00;100384.53;4969723;28;20566;-86
2023/06/17 07:18:59;;;;;;;25.08;19.42;;;;;;;22.96;100.00;100310.38;4957115;28;20038;-86
2023/06/17 07:21:25;;;;;;;23.20;19.27;;;;;;;23.20;100.00;100212.91;4973882;28;20031;-87
2023/06/17 07:23:51;;;;;;;26.60;21.63;;;;;;;23.26;100.00;100173.75;4971958;28;20065;-86
2023/06/17 07:26:16;;;;;;;26.23;21.63;;;;;;;22.64;100.00;100245.81;4986480;28;20528;-86
2023/06/17 07:28:43;;;;;;;27.63;21.02;;;;;;;22.77;100.00;100294.38;4964824;28;20031;-86
2023/06/17 07:31:09;;;;;;;26.73;21.60;;;;;;;22.67;100.00;100277.94;4955164;28;20027;-86
2023/06/17 07:33:35;;;;;;;24.88;19.83;;;;;;;23.03;100.00;100463.47;4952165;28;20073;-87
2023/06/17 07:36:01;;;;;;;26.27;20.70;;;;;;;23.67;100.00;100389.31;4957186;28;20085;-86
2023/06/17 07:38:27;;;;;;;22.00;18.42;;;;;;;23.60;100.00;100424.94;4973642;28;20086;-86
2023/06/17 07:40:52;;;;;;;25.97;22.17;;;;;;;23.80;96.57;100235.47;4963675;28;20146;-88
2023/06/17 07:43:18;;;;;;;21.63;18.20;;;;;;;24.03;96.22;100305.13;4955369;28;20026;-86
2023/06/17 07:45:43;;;;;;;27.27;23.80;;;;;;;22.44;97.23;100094.06;4979264;28;20400;-87
2023/06/17 07:48:08;;;;;;;26.80;19.73;;;;;;;23.33;98.23;100383.25;4972418;28;20366;-86
2023/06/17 07:50:34;;;;;;;26.37;21.00;;;;;;;22.60;100.00;100475.91;4955559;28;20023;-86
2023/06/17 07:52:59;;;;;;;31.50;25.03;;;;;;;20.79;100.00;100490.84;4974762;28;20027;-86
2023/06/17 07:55:26;;;;;;;23.02;19.63;;;;;;;21.67;100.00;100728.03;4966846;28;20254;-87
2023/06/17 07:57:51;;;;;;;26.90;22.25;;;;;;;21.39;100.00;100593.72;4975414;28;20027;-86
2023/06/17 08:00:17;;;;;;;24.88;20.73;;;;;;;22.48;100.00;100812.50;4976826;28;20031;-86
2023/06/17 08:02:43;;;;;;;24.20;20.53;;;;;;;22.74;100.00;100572.44;4976667;28;20484;-86
2023/06/17 08:05:09;;;;;;;23.58;20.08;;;;;;;23.21;100.00;100439.75;4951904;28;20398;-86
2023/06/17 08:07:35;;;;;;;22.58;18.88;;;;;;;23.38;98.68;100392.28;4960895;28;20019;-86
2023/06/17 08:10:00;;;;;;;22.05;18.35;;;;;;;23.69;97.31;100408.13;4975170;28;20031;-86
2023/06/17 08:12:26;;;;;;;21.05;18.02;;;;;;;23.38;98.31;100419.50;4960712;28;20034;-86
2023/06/17 08:14:52;;;;;;;24.00;21.40;;;;;;;23.35;94.37;100193.16;4976934;28;20035;-86
2023/06/17 08:17:17;;;;;;;25.48;21.13;;;;;;;23.43;92.99;100176.31;4961759;28;20274;-86
2023/06/17 08:19:43;;;;;;;23.90;16.93;;;;;;;23.76;95.51;100415.06;4977543;28;20041;-86
2023/06/17 08:22:09;;;;;;;22.25;18.08;;;;;;;23.73;96.14;100455.59;4961193;28;20313;-86
2023/06/17 08:24:35;;;;;;;21.83;19.08;;;;;;;23.68;93.86;100324.72;4962536;28;20038;-86
2023/06/17 08:27:00;;;;;;;23.35;19.50;;;;;;;23.63;92.74;100245.69;4961472;28;20519;-86
2023/06/17 08:29:26;;;;;;;23.58;17.35;;;;;;;23.53;94.48;100361.66;4986110;28;20114;-86
2023/06/17 08:31:52;;;;;;;22.45;17.63;;;;;;;23.45;93.28;100282.31;4981274;28;20027;-86
2023/06/17 08:34:19;;;;;;;20.15;16.00;;;;;;;24.01;91.35;100286.28;4979638;28;20035;-86
2023/06/17 08:36:46;;;;;;;;;;;;;;;23.87;90.46;100229.78;4986861;28;20058;-87
2023/06/17 08:39:12;;;;;;;17.92;14.57;;;;;;;24.16;91.13;100333.81;4978567;28;20273;-85
2023/06/17 08:41:39;;;;;;;17.05;14.23;;;;;;;24.53;90.83;100403.94;4973990;28;20030;-86
2023/06/17 08:44:06;;;;;;;15.35;13.82;;;;;;;24.51;89.02;100291.50;4957860;28;20046;-86
2023/06/17 08:46:32;;;;;;;17.35;14.30;;;;;;;24.80;87.53;100254.50;4952125;28;20500;-86
2023/06/17 08:48:58;;;;;;;17.58;15.68;;;;;;;24.79;84.57;100042.66;4989367;28;20081;-86
2023/06/17 08:51:25;;;;;;;15.90;14.10;;;;;;;24.79;84.54;100082.78;4958458;28;20022;-85
2023/06/17 08:53:51;;;;;;;17.15;14.80;;;;;;;25.14;82.48;99972.69;4955914;28;20090;-85
2023/06/17 08:56:17;;;;;;;16.85;14.38;;;;;;;25.18;82.81;100072.13;4959028;28;20023;-85
2023/06/17 08:58:44;;;;;;;14.85;13.35;;;;;;;25.84;82.68;100204.25;4955436;28;20039;-89
2023/06/17 09:01:10;;;;;;;14.52;10.95;;;;;;;25.61;83.75;100269.34;4958746;28;20023;-85
2023/06/17 09:03:39;;;;;;;15.85;14.20;;;;;;;26.22;79.85;100085.19;4958326;28;20034;-85
2023/06/17 09:06:15;;;;;;;15.05;12.38;;;;;;;26.50;76.10;99904.88;4973761;28;20030;-86
2023/06/17 09:08:41;;;;;;;;;;;;;;;25.19;78.86;99956.34;4958568;28;20041;-86
2023/06/17 09:11:07;;;;;;;16.25;13.38;;;;;;;25.28;80.15;100104.88;4982269;28;19966;-86
2023/06/17 09:13:32;;;;;;;16.63;14.75;;;;;;;24.49;78.83;99800.69;4970186;28;20043;-86
2023/06/17 09:15:59;;;;;;;15.30;13.53;;;;;;;24.34;80.73;99978.78;4957716;28;20026;-85
2023/06/17 09:18:24;;;;;;;15.02;13.32;;;;;;;24.89;79.09;99994.59;4974799;28;20031;-85
2023/06/17 09:20:56;;;;;;;13.57;11.13;;;;;;;24.75;81.46;100191.72;4959226;28;20027;-86
2023/06/17 09:23:22;;;;;;;17.55;14.80;;;;;;;25.37;77.75;99979.47;4973889;28;20788;-86
2023/06/17 09:25:48;;;;;;;13.73;12.32;;;;;;;26.06;75.49;99960.56;4957802;28;20015;-86
2023/06/17 09:28:15;;;;;;;12.73;10.73;;;;;;;26.06;75.47;100027.00;4974146;28;20077;-87
2023/06/17 09:30:43;;;;;;;13.38;9.85;;;;;;;26.70;71.67;99821.78;4966838;28;20035;-86
2023/06/17 09:33:22;;;;;;;12.88;10.65;;;;;;;26.38;69.17;99609.75;4956610;28;20093;-86
2023/06/17 09:36:00;;;;;;;10.63;9.38;;;;;;;26.35;70.11;99743.63;4964507;28;20041;-87
2023/06/17 09:38:27;;;;;;;10.82;8.52;;;;;;;25.96;68.15;99455.56;4972749;28;20037;-86
2023/06/17 09:40:52;;;;;;;8.88;7.00;;;;;;;26.92;66.15;99588.44;4973311;28;20027;-86
2023/06/17 09:43:18;;;;;;;8.98;7.20;;;;;;;27.29;65.08;99546.47;4973185;28;20038;-86
2023/06/17 09:45:44;;;;;;;8.65;6.30;;;;;;;27.95;64.13;99686.94;4973147;28;20069;-87
2023/06/17 09:48:10;;;;;;;8.50;5.70;;;;;;;28.76;61.50;99608.69;4956810;28;20049;-84
2023/06/17 09:50:37;;;;;;;8.68;7.10;;;;;;;28.46;61.62;99575.34;4953931;28;20023;-85
2023/06/17 09:53:05;;;;;;;7.13;5.80;;;;;;;28.60;58.83;99290.56;4971743;28;20054;-85
2023/06/17 09:55:31;;;;;;;5.57;4.15;;;;;;;28.00;58.12;99181.34;4978373;28;20030;-84
2023/06/17 09:57:59;;;;;;;4.25;3.70;;;;;;;28.56;56.89;99192.69;4974222;28;20042;-86
2023/06/17 10:00:25;;;;;;;6.47;4.07;;;;;;;28.87;54.42;99019.56;4957290;28;20114;-85
2023/06/17 10:02:54;;;;;;;5.55;3.97;;;;;;;28.86;51.12;98618.94;4957122;28;20118;-87
2023/06/17 10:05:23;;;;;;;3.42;3.13;;;;;;;29.18;49.64;98702.56;4973832;28;20061;-87
2023/06/17 10:07:51;;;;;;;8.38;4.10;;;;;;;29.31;49.06;98663.00;4973355;28;20033;-88
2023/06/17 10:10:18;;;;;;;4.95;3.75;;;;;;;28.04;48.91;98354.06;4956767;28;20392;-87
2023/06/17 10:12:45;;;;;;;5.25;3.30;;;;;;;29.23;48.37;98768.31;4972495;28;20489;-87
2023/06/17 10:15:12;;;;;;;4.13;3.50;;;;;;;28.93;48.33;98718.88;4971885;28;20385;-87
2023/06/17 10:17:41;;;;;;;6.03;3.33;;;;;;;29.61;46.03;98622.44;4972250;28;20031;-87
2023/06/17 10:20:08;;;;;;;5.93;3.67;;;;;;;28.18;47.40;98394.91;4972210;28;20019;-87
2023/06/17 10:22:37;;;;;;;3.80;3.13;;;;;;;29.04;47.29;98766.00;4971967;28;20033;-87
2023/06/17 10:25:04;;;;;;;3.75;3.20;;;;;;;28.81;47.17;98619.94;4972120;28;20055;-86
2023/06/17 10:27:31;;;;;;;3.85;3.45;;;;;;;29.61;46.44;98827.84;4980894;28;20050;-86
2023/06/17 10:29:58;;;;;;;4.50;3.38;;;;;;;30.40;44.46;98778.41;4972584;28;20018;-85
2023/06/17 10:32:24;;;;;;;3.30;3.00;;;;;;;29.61;44.44;98503.44;4978549;28;20027;-86
2023/06/17 10:35:05;;;;;;;4.43;3.10;;;;;;;30.05;44.96;98756.75;4975180;28;20025;-86
2023/06/17 10:37:31;;;;;;;3.80;3.20;;;;;;;29.52;44.42;98442.25;4973309;28;20049;-86
2023/06/17 10:40:15;;;;;;;;;;;;;;;29.36;44.22;98459.47;4956474;28;20472;-86
2023/06/17 10:42:52;;;;;;;5.50;3.13;;;;;;;30.10;43.95;98693.25;4972427;28;19934;-85
2023/06/17 10:45:17;;;;;;;4.00;3.60;;;;;;;29.70;43.75;98509.66;4973461;28;20122;-86
2023/06/17 10:47:43;;;;;;;;;;;;;;;29.84;42.24;98317.59;4956615;28;20106;-87
2023/06/17 10:50:11;;;;;;;4.47;3.43;;;;;;;29.38;41.86;98044.16;4971962;28;19950;-87
2023/06/17 10:52:38;;;;;;;3.83;2.95;;;;;;;29.48;43.76;98491.63;4976080;28;20029;-85
2023/06/17 10:55:04;;;;;;;6.03;3.80;;;;;;;29.97;41.95;98364.28;4963911;28;20039;-86
2023/06/17 10:57:34;;;;;;;5.20;3.08;;;;;;;30.39;41.56;98479.50;4955580;28;20046;-86
2023/06/17 11:00:13;;;;;;;3.72;3.20;;;;;;;29.97;42.07;98391.78;4956933;28;20046;-85
2023/06/17 11:02:39;;;;;;;3.80;3.35;;;;;;;30.68;40.79;98424.09;4972143;28;20043;-86
2023/06/17 11:05:06;;;;;;;;;;;;;;;30.27;41.40;98408.81;4955902;28;20030;-86
2023/06/17 11:07:32;;;;;;;4.13;3.28;;;;;;;30.39;40.11;98218.84;4971534;28;20392;-85
2023/06/17 11:09:57;;;;;;;;;;;;;;;30.38;39.99;98158.66;4955746;28;20094;-86